Time;durP1;ratioP1;P1;durP2;ratioP2;P2;SDS_P1;SDS_P2;PMS_P1;PMS_P2;Temp;Humidity;BMP_temperature;BMP_pressure;BME280_temperature;BME280_humidity;BME280_pressure;Samples;Min_cycle;Max_cycle;Signal;HPM_P1;HPM_P2
2021/03/23 00:01:02;;;;;;;6.00;4.67;;;6.00;99.90;;;;;;5041541;28;20425;-78
2021/03/23 00:03:31;;;;;;;6.03;4.77;;;6.00;99.90;;;;;;5059998;28;20505;-78
2021/03/23 00:05:57;;;;;;;5.13;4.30;;;6.00;99.90;;;;;;5063687;28;20383;-78
2021/03/23 00:08:43;;;;;;;7.57;4.70;;;6.00;99.90;;;;;;5081389;28;20994;-78
2021/03/23 00:11:13;;;;;;;6.00;5.27;;;6.00;99.90;;;;;;5048608;28;20944;-78
2021/03/23 00:13:41;;;;;;;6.87;5.40;;;6.00;99.90;;;;;;5079881;28;20398;-78
2021/03/23 00:16:08;;;;;;;6.83;6.07;;;6.00;99.90;;;;;;5061239;28;20851;-78
2021/03/23 00:18:34;;;;;;;8.20;5.47;;;6.10;99.90;;;;;;5047730;27;20430;-78
2021/03/23 00:20:59;;;;;;;6.97;5.30;;;6.10;99.90;;;;;;5067863;27;20757;-78
2021/03/23 00:23:25;;;;;;;6.60;5.57;;;6.10;99.90;;;;;;5087438;27;20210;-78
2021/03/23 00:25:51;;;;;;;5.50;5.00;;;6.10;99.90;;;;;;5063250;27;20290;-78
2021/03/23 00:28:21;;;;;;;5.83;5.13;;;6.10;99.90;;;;;;5067155;27;20424;-78
2021/03/23 00:30:46;;;;;;;7.10;5.30;;;6.20;99.90;;;;;;5086651;27;20397;-78
2021/03/23 00:33:12;;;;;;;5.73;5.03;;;6.10;99.90;;;;;;5086440;27;20474;-78
2021/03/23 00:35:38;;;;;;;8.40;5.70;;;6.10;99.90;;;;;;5069589;27;20231;-78
2021/03/23 00:38:05;;;;;;;6.77;5.93;;;6.20;99.90;;;;;;5058067;27;20302;-79
2021/03/23 00:40:33;;;;;;;7.03;5.60;;;6.10;99.90;;;;;;5085843;27;20714;-78
2021/03/23 00:43:01;;;;;;;6.63;6.03;;;6.10;99.90;;;;;;5081015;27;20429;-78
2021/03/23 00:45:29;;;;;;;5.57;4.70;;;6.10;99.90;;;;;;5083922;27;20401;-78
2021/03/23 00:47:54;;;;;;;6.27;5.67;;;6.10;99.90;;;;;;5069362;27;20453;-78
2021/03/23 00:50:20;;;;;;;9.43;6.30;;;6.10;99.90;;;;;;5070082;27;20399;-77
2021/03/23 00:52:46;;;;;;;7.60;5.57;;;6.10;99.90;;;;;;5053935;27;20258;-77
2021/03/23 00:55:12;;;;;;;9.47;5.90;;;6.10;99.90;;;;;;5069856;27;20844;-77
2021/03/23 00:57:37;;;;;;;7.30;6.57;;;6.10;99.90;;;;;;5086321;27;20473;-77
2021/03/23 01:00:07;;;;;;;8.17;6.17;;;6.10;99.90;;;;;;5087775;27;21637;-77
2021/03/23 01:02:33;;;;;;;9.10;7.70;;;6.20;99.90;;;;;;5090125;27;20739;-77
2021/03/23 01:04:59;;;;;;;6.93;6.27;;;6.10;99.90;;;;;;5069579;27;20406;-77
2021/03/23 01:07:25;;;;;;;8.47;6.40;;;6.10;99.90;;;;;;5062699;27;20633;-77
2021/03/23 01:09:51;;;;;;;10.07;6.57;;;6.10;99.90;;;;;;5069494;27;20290;-77
2021/03/23 01:12:17;;;;;;;7.63;6.20;;;6.10;99.90;;;;;;5073548;27;20943;-77
2021/03/23 01:14:43;;;;;;;9.53;7.53;;;6.10;99.90;;;;;;5083299;27;20229;-77
2021/03/23 01:17:09;;;;;;;20.93;7.60;;;6.00;99.90;;;;;;5073113;27;20940;-77
2021/03/23 01:19:35;;;;;;;8.00;7.20;;;6.00;99.90;;;;;;5065403;27;20889;-77
2021/03/23 01:22:01;;;;;;;11.77;7.37;;;6.10;99.90;;;;;;5051680;27;20408;-78
2021/03/23 01:24:27;;;;;;;10.17;7.57;;;6.00;99.90;;;;;;5054020;27;20418;-77
2021/03/23 01:26:53;;;;;;;11.83;8.60;;;6.00;99.90;;;;;;5087489;27;20911;-77
2021/03/23 01:29:18;;;;;;;9.60;7.20;;;6.00;99.90;;;;;;5105149;27;20304;-77
2021/03/23 01:31:44;;;;;;;11.50;8.07;;;6.00;99.90;;;;;;5072907;27;20230;-77
2021/03/23 01:34:10;;;;;;;12.23;8.97;;;6.10;99.90;;;;;;5068089;27;20208;-77
2021/03/23 01:36:36;;;;;;;9.87;7.03;;;6.10;99.90;;;;;;5059491;27;20212;-77
2021/03/23 01:39:03;;;;;;;11.03;8.80;;;6.10;99.90;;;;;;5069714;27;20307;-77
2021/03/23 01:41:32;;;;;;;11.77;8.07;;;6.10;99.90;;;;;;5088753;27;20874;-77
2021/03/23 01:43:57;;;;;;;11.17;8.63;;;6.10;99.90;;;;;;5066225;27;20384;-77
2021/03/23 01:46:39;;;;;;;12.03;9.57;;;6.10;99.90;;;;;;5070330;27;20452;-77
2021/03/23 01:49:19;;;;;;;11.17;8.70;;;6.10;99.90;;;;;;5102507;27;21014;-77
2021/03/23 01:52:10;;;;;;;10.50;8.83;;;6.00;99.90;;;;;;5071658;27;20400;-77
2021/03/23 01:54:42;;;;;;;10.10;7.93;;;6.10;99.90;;;;;;5091069;27;20432;-77
2021/03/23 01:57:10;;;;;;;16.20;8.73;;;6.10;99.90;;;;;;5104238;27;21024;-77
2021/03/23 01:59:42;;;;;;;15.07;10.67;;;6.00;99.90;;;;;;5085123;27;20375;-77
2021/03/23 02:02:10;;;;;;;13.07;9.30;;;6.00;99.90;;;;;;5074472;27;21369;-77
2021/03/23 02:04:36;;;;;;;15.00;9.33;;;6.00;99.90;;;;;;5124684;27;20508;-77
2021/03/23 02:07:03;;;;;;;13.10;9.20;;;6.10;99.90;;;;;;5060963;27;20452;-77
2021/03/23 02:09:34;;;;;;;14.27;9.23;;;6.10;99.90;;;;;;5072149;27;20208;-78
2021/03/23 02:12:06;;;;;;;11.40;8.50;;;6.10;99.90;;;;;;5089433;27;20500;-77
2021/03/23 02:14:34;;;;;;;15.00;10.63;;;6.10;99.90;;;;;;5107282;27;20477;-78
2021/03/23 02:17:23;;;;;;;12.83;8.27;;;6.20;99.90;;;;;;5067308;22;20502;-74
2021/03/23 02:20:00;;;;;;;12.93;9.00;;;6.10;99.90;;;;;;5052314;28;20422;-74
2021/03/23 02:22:31;;;;;;;12.13;9.73;;;6.00;99.90;;;;;;5056491;28;20399;-75
2021/03/23 02:24:58;;;;;;;16.50;11.30;;;6.10;99.90;;;;;;5071732;28;20476;-75
2021/03/23 02:27:26;;;;;;;14.53;11.10;;;6.10;99.90;;;;;;5027215;28;20424;-75
2021/03/23 02:29:53;;;;;;;14.80;11.23;;;6.10;99.90;;;;;;5056593;28;20407;-75
2021/03/23 02:32:19;;;;;;;13.63;11.83;;;6.10;99.90;;;;;;5024958;28;20825;-75
2021/03/23 02:34:45;;;;;;;20.47;12.03;;;6.10;99.90;;;;;;5055501;28;20428;-75
2021/03/23 02:37:11;;;;;;;15.93;11.73;;;6.10;99.90;;;;;;5046044;28;20454;-75
2021/03/23 02:39:37;;;;;;;17.93;12.07;;;6.10;99.90;;;;;;5058578;28;20415;-76
2021/03/23 02:42:05;;;;;;;15.17;11.40;;;6.10;99.90;;;;;;5040304;28;20390;-76
2021/03/23 02:44:48;;;;;;;18.40;11.63;;;6.10;99.90;;;;;;5055506;28;20945;-75
2021/03/23 02:47:16;;;;;;;21.87;13.00;;;6.10;99.90;;;;;;5057546;28;20882;-75
2021/03/23 02:49:41;;;;;;;13.77;11.30;;;6.10;99.90;;;;;;5038366;28;20504;-75
2021/03/23 02:52:09;;;;;;;17.50;13.00;;;6.10;99.90;;;;;;5042004;28;20441;-75
2021/03/23 02:54:36;;;;;;;16.20;12.83;;;6.10;99.90;;;;;;5039138;28;20201;-77
2021/03/23 02:57:02;;;;;;;16.13;12.23;;;6.10;99.90;;;;;;5059268;28;20436;-75
2021/03/23 02:59:28;;;;;;;17.70;12.90;;;6.10;99.90;;;;;;5073231;28;20374;-75
2021/03/23 03:01:54;;;;;;;19.90;13.23;;;6.10;99.90;;;;;;5062399;28;20894;-75
2021/03/23 03:04:20;;;;;;;16.33;12.20;;;6.10;99.90;;;;;;5029087;28;20210;-75
2021/03/23 03:06:46;;;;;;;23.33;14.43;;;6.10;99.90;;;;;;5059420;28;20436;-76
2021/03/23 03:09:11;;;;;;;19.63;14.07;;;6.20;99.90;;;;;;5073242;28;20432;-75
2021/03/23 03:11:37;;;;;;;20.20;13.93;;;6.20;99.90;;;;;;5052872;28;21159;-75
2021/03/23 03:14:04;;;;;;;16.90;13.60;;;6.20;99.90;;;;;;5056445;28;20260;-76
2021/03/23 03:16:29;;;;;;;19.77;14.93;;;6.20;99.90;;;;;;5057756;28;20549;-75
2021/03/23 03:18:55;;;;;;;24.07;14.40;;;6.20;99.90;;;;;;5040828;28;20547;-75
2021/03/23 03:21:22;;;;;;;20.20;13.23;;;6.30;99.90;;;;;;5040233;28;20232;-75
2021/03/23 03:23:48;;;;;;;19.40;12.60;;;6.30;99.90;;;;;;5056245;28;20294;-76
2021/03/23 03:26:14;;;;;;;17.13;12.43;;;6.30;99.90;;;;;;5054565;28;20442;-75
2021/03/23 03:28:49;;;;;;;18.87;14.00;;;6.30;99.90;;;;;;5058825;28;20382;-75
2021/03/23 03:31:26;;;;;;;22.03;14.30;;;6.30;99.90;;;;;;5059401;28;20418;-75
2021/03/23 03:33:53;;;;;;;20.77;13.37;;;6.20;99.90;;;;;;5056082;28;20945;-76
2021/03/23 03:36:21;;;;;;;20.30;14.10;;;6.30;99.90;;;;;;5043234;28;20460;-76
2021/03/23 03:38:47;;;;;;;21.07;15.00;;;6.30;99.90;;;;;;5056667;28;20405;-76
2021/03/23 03:41:14;;;;;;;24.93;15.20;;;6.30;99.90;;;;;;5044373;28;20390;-76
2021/03/23 03:43:41;;;;;;;26.33;15.67;;;6.30;99.90;;;;;;5054561;28;20949;-76
2021/03/23 03:46:07;;;;;;;23.40;15.37;;;6.20;99.90;;;;;;5043184;28;20415;-76
2021/03/23 03:48:32;;;;;;;30.50;16.80;;;6.30;99.90;;;;;;5059405;28;20413;-77
2021/03/23 03:50:58;;;;;;;23.60;15.23;;;6.30;99.90;;;;;;5059020;28;20775;-77
2021/03/23 03:53:25;;;;;;;20.83;14.47;;;6.30;99.90;;;;;;5073173;28;20217;-76
2021/03/23 03:55:53;;;;;;;24.00;16.07;;;6.30;99.90;;;;;;5056100;28;20403;-76
2021/03/23 03:58:19;;;;;;;23.10;16.70;;;6.30;99.90;;;;;;5054277;28;20392;-75
2021/03/23 04:00:44;;;;;;;24.80;15.87;;;6.30;99.90;;;;;;5044681;28;20429;-76
2021/03/23 04:03:14;;;;;;;28.73;18.03;;;6.30;99.90;;;;;;5056818;28;20953;-75
2021/03/23 04:05:42;;;;;;;21.50;16.10;;;6.30;99.90;;;;;;5057617;28;20205;-75
2021/03/23 04:08:11;;;;;;;20.50;15.23;;;6.40;99.90;;;;;;5059893;28;20423;-76
2021/03/23 04:10:38;;;;;;;22.40;15.60;;;6.40;99.90;;;;;;5061512;28;20469;-75
2021/03/23 04:13:05;;;;;;;26.30;17.57;;;6.30;99.90;;;;;;5054365;28;20869;-75
2021/03/23 04:15:32;;;;;;;33.60;15.23;;;6.40;99.90;;;;;;5058133;28;20538;-75
2021/03/23 04:17:58;;;;;;;25.23;15.97;;;6.30;99.90;;;;;;5058227;28;20477;-75
2021/03/23 04:20:24;;;;;;;21.10;14.97;;;6.30;99.90;;;;;;5057791;28;20430;-75
2021/03/23 04:22:51;;;;;;;24.60;17.00;;;6.30;99.90;;;;;;5039787;28;20438;-75
2021/03/23 04:25:19;;;;;;;21.33;16.13;;;6.30;99.90;;;;;;5058418;28;20476;-76
2021/03/23 04:27:46;;;;;;;22.57;16.70;;;6.30;99.90;;;;;;5061594;28;20478;-76
2021/03/23 04:30:13;;;;;;;27.00;17.37;;;6.20;99.90;;;;;;5071458;28;20398;-76
2021/03/23 04:32:39;;;;;;;27.73;17.33;;;6.30;99.90;;;;;;5060067;28;20538;-75
2021/03/23 04:35:08;;;;;;;21.07;14.70;;;6.20;99.90;;;;;;5044912;28;20435;-76
2021/03/23 04:37:34;;;;;;;24.17;16.40;;;6.20;99.90;;;;;;5059640;28;20427;-76
2021/03/23 04:40:10;;;;;;;22.40;15.93;;;6.20;99.90;;;;;;5055244;28;20446;-76
2021/03/23 04:42:36;;;;;;;23.97;17.27;;;6.30;99.90;;;;;;5059772;28;20216;-76
2021/03/23 04:45:02;;;;;;;25.87;19.13;;;6.30;99.90;;;;;;5060737;28;20769;-76
2021/03/23 04:47:27;;;;;;;22.33;17.13;;;6.20;99.90;;;;;;5038719;28;20414;-76
2021/03/23 04:49:53;;;;;;;24.50;16.13;;;6.20;99.90;;;;;;5039390;28;20783;-76
2021/03/23 04:52:19;;;;;;;20.03;14.57;;;6.10;99.90;;;;;;5059705;28;20229;-76
2021/03/23 04:54:44;;;;;;;27.20;16.53;;;6.20;99.90;;;;;;5059205;28;20205;-76
2021/03/23 04:57:10;;;;;;;26.63;16.70;;;6.20;99.90;;;;;;5055431;28;20382;-76
2021/03/23 04:59:36;;;;;;;30.50;18.70;;;6.20;99.90;;;;;;5058028;28;20742;-76
2021/03/23 05:02:01;;;;;;;25.20;17.53;;;6.20;99.90;;;;;;5065431;28;20300;-76
2021/03/23 05:04:27;;;;;;;28.20;17.83;;;6.20;99.90;;;;;;5055825;28;20300;-75
2021/03/23 05:06:53;;;;;;;27.73;16.67;;;6.30;99.90;;;;;;5060299;28;20550;-75
2021/03/23 05:09:19;;;;;;;27.53;16.83;;;6.30;99.90;;;;;;5056632;28;20842;-76
2021/03/23 05:11:45;;;;;;;25.20;17.20;;;6.50;99.90;;;;;;5058771;28;20225;-76
2021/03/23 05:14:10;;;;;;;26.47;17.77;;;6.40;99.90;;;;;;5045838;28;20285;-74
2021/03/23 05:16:36;;;;;;;26.87;15.60;;;6.40;99.90;;;;;;5056493;28;20834;-74
2021/03/23 05:19:04;;;;;;;27.73;17.03;;;6.30;99.90;;;;;;5074893;28;20217;-74
2021/03/23 05:21:30;;;;;;;25.60;15.10;;;6.30;99.90;;;;;;5061503;28;20431;-76
2021/03/23 05:23:58;;;;;;;21.57;15.27;;;6.30;99.90;;;;;;5058711;28;20406;-75
2021/03/23 05:26:25;;;;;;;25.00;16.57;;;6.20;99.90;;;;;;5041948;28;20216;-75
2021/03/23 05:28:52;;;;;;;22.17;15.60;;;6.30;99.90;;;;;;5040981;28;20500;-75
2021/03/23 05:31:17;;;;;;;26.77;16.20;;;6.20;99.90;;;;;;5055905;28;20506;-75
2021/03/23 05:33:44;;;;;;;19.30;14.67;;;6.20;99.90;;;;;;5058179;28;20884;-75
2021/03/23 05:36:10;;;;;;;20.93;14.77;;;6.30;99.90;;;;;;5057955;28;20578;-75
2021/03/23 05:38:37;;;;;;;29.30;15.43;;;6.30;99.90;;;;;;5058666;28;20407;-75
2021/03/23 05:41:06;;;;;;;20.13;14.80;;;6.20;99.90;;;;;;5057247;28;21586;-75
2021/03/23 05:43:41;;;;;;;21.13;15.00;;;6.30;99.90;;;;;;5059260;28;20397;-76
2021/03/23 05:46:10;;;;;;;24.47;15.53;;;6.40;99.90;;;;;;5059213;28;20376;-76
2021/03/23 05:48:39;;;;;;;28.07;15.47;;;6.30;99.90;;;;;;5057861;28;20414;-75
2021/03/23 05:51:15;;;;;;;21.60;14.17;;;6.20;99.90;;;;;;5060493;28;20389;-75
2021/03/23 05:53:46;;;;;;;22.93;14.50;;;6.20;99.90;;;;;;5058856;28;20488;-75
2021/03/23 05:56:12;;;;;;;19.17;14.77;;;6.30;99.90;;;;;;5058485;28;20423;-76
2021/03/23 05:58:46;;;;;;;29.83;16.40;;;6.40;99.90;;;;;;5057951;28;20486;-75
2021/03/23 06:01:17;;;;;;;18.50;13.83;;;6.40;99.90;;;;;;5057202;28;20415;-75
2021/03/23 06:04:01;;;;;;;22.90;14.90;;;6.40;99.90;;;;;;5059780;28;20430;-75
2021/03/23 06:06:39;;;;;;;23.27;14.60;;;6.60;99.90;;;;;;5061320;28;20407;-75
2021/03/23 06:09:05;;;;;;;20.63;14.10;;;6.60;99.90;;;;;;5058151;28;20405;-75
2021/03/23 06:11:43;;;;;;;22.70;14.87;;;6.70;99.90;;;;;;5040251;28;20463;-75
2021/03/23 06:14:31;;;;;;;22.73;15.93;;;6.80;99.90;;;;;;5066852;28;20413;-75
2021/03/23 06:17:06;;;;;;;29.07;16.40;;;6.80;99.90;;;;;;5054809;28;20457;-75
2021/03/23 06:20:10;;;;;;;28.83;15.67;;;6.90;99.90;;;;;;5055178;28;20415;-75
2021/03/23 06:23:06;;;;;;;26.80;15.83;;;6.90;99.90;;;;;;5058605;28;20407;-75
2021/03/23 06:25:40;;;;;;;26.53;16.17;;;6.80;99.90;;;;;;5071629;28;20432;-75
2021/03/23 06:28:18;;;;;;;26.97;18.27;;;6.90;99.90;;;;;;5058541;28;20403;-76
2021/03/23 06:31:05;;;;;;;22.90;16.37;;;7.00;99.90;;;;;;5060775;28;20422;-75
2021/03/23 06:33:32;;;;;;;26.40;17.03;;;7.00;99.90;;;;;;5061878;28;21306;-76
2021/03/23 06:36:04;;;;;;;32.93;21.30;;;7.10;99.90;;;;;;5043905;28;21522;-76
2021/03/23 06:38:36;;;;;;;23.50;16.73;;;7.20;99.90;;;;;;5053034;28;20395;-76
2021/03/23 06:41:07;;;;;;;30.80;17.03;;;7.10;99.90;;;;;;5056070;28;20435;-76
2021/03/23 06:43:34;;;;;;;27.10;17.10;;;7.10;99.90;;;;;;5057450;28;20383;-76
2021/03/23 06:46:16;;;;;;;30.07;17.90;;;7.10;99.90;;;;;;5069574;28;21175;-75
2021/03/23 06:48:42;;;;;;;29.53;19.10;;;7.20;99.90;;;;;;5053081;28;21306;-76
2021/03/23 06:51:22;;;;;;;30.30;18.87;;;7.20;99.90;;;;;;5058042;28;20794;-75
2021/03/23 06:53:48;;;;;;;26.13;17.50;;;7.10;99.90;;;;;;5055384;28;20446;-76
2021/03/23 06:56:26;;;;;;;23.17;17.67;;;7.00;99.90;;;;;;5039771;28;20475;-75
2021/03/23 06:59:15;;;;;;;24.07;16.03;;;7.00;99.90;;;;;;5053881;28;20305;-75
2021/03/23 07:01:43;;;;;;;29.03;17.83;;;6.90;99.90;;;;;;5058058;28;20430;-75
2021/03/23 07:04:30;;;;;;;26.60;16.20;;;6.90;99.90;;;;;;5057571;28;20419;-76
2021/03/23 07:07:10;;;;;;;28.07;17.97;;;6.90;99.90;;;;;;5052055;28;20389;-75
2021/03/23 07:09:54;;;;;;;32.77;17.10;;;6.90;99.90;;;;;;5067156;28;20439;-75
2021/03/23 07:12:38;;;;;;;30.10;17.53;;;7.00;99.90;;;;;;5039529;28;20478;-74
2021/03/23 07:15:24;;;;;;;25.17;17.60;;;7.00;99.90;;;;;;5071651;28;20883;-75
2021/03/23 07:17:54;;;;;;;24.97;17.87;;;7.00;99.90;;;;;;5065589;28;20435;-75
2021/03/23 07:20:39;;;;;;;25.20;16.97;;;7.00;99.90;;;;;;5052902;28;21212;-75
2021/03/23 07:23:29;;;;;;;28.63;18.20;;;7.20;99.90;;;;;;5056550;28;20405;-75
2021/03/23 07:25:56;;;;;;;38.70;17.50;;;7.40;99.90;;;;;;5054756;28;20493;-74
2021/03/23 07:28:34;;;;;;;25.10;17.50;;;7.50;99.90;;;;;;5039451;28;20446;-75
2021/03/23 07:31:28;;;;;;;29.17;17.33;;;7.60;99.90;;;;;;5053643;28;21059;-75
2021/03/23 07:34:13;;;;;;;28.23;16.83;;;7.50;99.90;;;;;;5058115;28;20928;-75
2021/03/23 07:36:55;;;;;;;31.60;19.23;;;7.60;99.90;;;;;;5036831;28;20481;-76
2021/03/23 07:39:56;;;;;;;40.23;18.87;;;7.50;99.90;;;;;;5051598;28;20492;-75
2021/03/23 07:42:59;;;;;;;29.30;18.80;;;7.60;99.90;;;;;;5006622;28;20406;-75
2021/03/23 07:45:48;;;;;;;40.10;21.20;;;7.50;99.90;;;;;;5008437;28;20749;-76
2021/03/23 07:48:19;;;;;;;28.10;17.80;;;7.70;99.90;;;;;;5003314;28;20426;-75
2021/03/23 07:50:47;;;;;;;29.70;19.17;;;7.80;99.90;;;;;;5012666;28;20459;-75
2021/03/23 07:53:24;;;;;;;26.53;18.07;;;7.90;99.90;;;;;;5013059;28;20424;-75
2021/03/23 07:55:51;;;;;;;35.73;20.67;;;8.00;99.90;;;;;;4995569;28;20576;-75
2021/03/23 07:58:44;;;;;;;31.50;20.67;;;8.20;99.90;;;;;;4995388;28;20429;-75
2021/03/23 08:01:42;;;;;;;36.30;20.87;;;8.50;99.90;;;;;;5002030;28;20433;-75
2021/03/23 08:04:15;;;;;;;33.40;17.10;;;8.30;99.90;;;;;;5000619;28;20540;-75
2021/03/23 08:07:04;;;;;;;34.10;20.00;;;8.60;99.90;;;;;;5016118;28;20432;-74
2021/03/23 08:09:47;;;;;;;30.70;21.00;;;8.80;99.90;;;;;;5014436;28;20424;-75
2021/03/23 08:12:43;;;;;;;34.97;19.90;;;8.80;99.90;;;;;;5013987;28;20528;-75
2021/03/23 08:15:21;;;;;;;31.07;19.10;;;8.90;99.90;;;;;;4998249;28;20564;-75
2021/03/23 08:17:58;;;;;;;36.63;21.37;;;9.10;99.90;;;;;;5015331;28;20898;-74
2021/03/23 08:21:09;;;;;;;32.77;21.03;;;9.20;99.90;;;;;;4995545;28;20427;-74
2021/03/23 08:23:55;;;;;;;37.83;23.50;;;9.10;99.90;;;;;;4974095;28;20468;-74
2021/03/23 08:26:51;;;;;;;43.97;20.57;;;9.60;99.90;;;;;;5055545;28;20399;-75
2021/03/23 08:29:35;;;;;;;32.37;21.13;;;9.60;99.90;;;;;;5067366;28;20727;-76
2021/03/23 08:32:42;;;;;;;36.03;20.60;;;10.00;99.90;;;;;;5051119;28;20573;-74
2021/03/23 08:35:28;;;;;;;33.33;22.23;;;10.60;99.90;;;;;;4978671;28;20417;-75
2021/03/23 08:37:57;;;;;;;33.37;21.07;;;10.40;99.90;;;;;;4995210;28;20416;-79
2021/03/23 08:40:29;;;;;;;34.53;21.20;;;10.80;99.90;;;;;;4999483;28;20764;-75
2021/03/23 08:42:56;;;;;;;32.50;20.57;;;11.00;99.90;;;;;;4963507;28;20429;-75
2021/03/23 08:45:35;;;;;;;31.50;20.43;;;11.50;99.90;;;;;;4981816;28;20862;-75
2021/03/23 08:48:17;;;;;;;37.27;21.97;;;11.20;99.90;;;;;;4965025;28;20636;-75
2021/03/23 08:50:45;;;;;;;29.70;20.77;;;11.10;99.90;;;;;;4995850;28;22367;-74
2021/03/23 08:53:28;;;;;;;38.53;22.50;;;11.10;99.90;;;;;;4998447;28;20422;-75
2021/03/23 08:55:55;;;;;;;30.10;21.40;;;11.40;99.90;;;;;;4978726;28;20448;-74
2021/03/23 08:58:46;;;;;;;36.87;22.67;;;11.50;99.90;;;;;;4963626;28;20531;-75
2021/03/23 09:01:56;;;;;;;30.50;21.70;;;11.30;99.90;;;;;;4995270;28;20421;-76
2021/03/23 09:04:34;;;;;;;40.47;21.63;;;11.50;99.90;;;;;;4973330;28;20440;-75
2021/03/23 09:07:25;;;;;;;37.27;22.20;;;12.90;99.90;;;;;;4975881;28;20400;-75
2021/03/23 09:09:53;;;;;;;34.70;22.27;;;13.70;99.90;;;;;;5011713;28;20755;-75
2021/03/23 09:12:42;;;;;;;34.37;22.13;;;14.20;99.10;;;;;;5056072;28;20427;-75
2021/03/23 09:15:26;;;;;;;55.07;21.50;;;14.70;98.50;;;;;;5033143;28;20487;-75
2021/03/23 09:18:24;;;;;;;33.17;22.13;;;15.20;96.10;;;;;;5012761;28;20490;-75
2021/03/23 09:20:50;;;;;;;38.77;22.87;;;16.30;94.80;;;;;;5030591;28;22591;-76
2021/03/23 09:25:52;;;;;;;37.17;21.43;;;16.70;89.70;;;;;;5029464;28;20760;-76
2021/03/23 09:31:00;;;;;;;31.77;20.00;;;14.00;92.10;;;;;;5032581;28;20400;-76
2021/03/23 09:33:26;;;;;;;34.83;22.23;;;14.40;94.30;;;;;;5029155;28;20463;-75
2021/03/23 09:36:11;;;;;;;34.10;23.57;;;13.70;94.40;;;;;;4999578;28;20909;-75
2021/03/23 09:38:47;;;;;;;32.50;21.53;;;13.60;95.00;;;;;;5018319;28;20229;-75
2021/03/23 09:41:22;;;;;;;37.97;24.00;;;13.80;95.60;;;;;;5015269;28;20772;-75
2021/03/23 09:43:53;;;;;;;33.40;21.57;;;13.70;95.40;;;;;;5005303;28;23218;-74
2021/03/23 09:46:22;;;;;;;33.27;21.17;;;13.60;96.40;;;;;;5028636;28;20428;-75
2021/03/23 09:49:21;;;;;;;35.83;22.40;;;14.50;96.30;;;;;;5013741;28;20514;-75
2021/03/23 09:52:06;;;;;;;37.47;22.97;;;15.70;93.10;;;;;;5020275;28;20793;-75
2021/03/23 09:54:53;;;;;;;29.13;18.93;;;15.20;92.60;;;;;;5033379;28;20995;-75
2021/03/23 09:57:28;;;;;;;29.97;19.90;;;16.70;91.50;;;;;;5032570;28;20423;-75
2021/03/23 09:59:57;;;;;;;25.63;18.47;;;17.20;88.30;;;;;;5019261;28;20419;-76
2021/03/23 10:02:32;;;;;;;29.30;18.63;;;17.00;83.50;;;;;;5021385;28;20411;-76
2021/03/23 10:05:28;;;;;;;29.50;19.67;;;14.90;84.60;;;;;;5011974;28;20418;-75
2021/03/23 10:08:14;;;;;;;26.73;20.30;;;16.30;87.10;;;;;;5031343;28;20424;-76
2021/03/23 10:10:40;;;;;;;35.10;20.13;;;15.80;84.50;;;;;;5011107;28;20394;-76
2021/03/23 10:13:36;;;;;;;22.97;18.00;;;16.10;86.70;;;;;;5000412;28;20422;-76
2021/03/23 10:16:06;;;;;;;29.37;20.07;;;16.60;84.60;;;;;;4975506;28;20451;-75
2021/03/23 10:18:39;;;;;;;27.50;19.77;;;17.70;78.60;;;;;;5021976;28;20423;-76
2021/03/23 10:21:07;;;;;;;26.70;19.30;;;16.50;78.10;;;;;;5050232;28;20559;-76
2021/03/23 10:23:34;;;;;;;25.30;17.97;;;16.50;80.40;;;;;;5017431;28;20408;-76
2021/03/23 10:26:06;;;;;;;29.23;17.90;;;16.60;80.40;;;;;;5019619;28;20421;-76
2021/03/23 10:28:48;;;;;;;27.83;19.27;;;17.20;81.20;;;;;;5031853;28;20411;-76
2021/03/23 10:31:35;;;;;;;23.43;16.33;;;16.10;79.10;;;;;;5018465;28;20989;-76
2021/03/23 10:34:04;;;;;;;32.83;20.77;;;17.30;78.50;;;;;;5032849;28;21054;-76
2021/03/23 10:36:44;;;;;;;25.03;18.90;;;17.30;78.70;;;;;;5026608;28;21025;-76
2021/03/23 10:39:43;;;;;;;28.50;19.20;;;16.90;75.90;;;;;;5031316;28;20416;-76
2021/03/23 10:42:30;;;;;;;27.97;19.50;;;16.50;78.00;;;;;;5032131;28;20566;-75
2021/03/23 10:45:43;;;;;;;29.90;20.63;;;16.30;76.80;;;;;;5034853;28;20446;-76
2021/03/23 10:48:18;;;;;;;31.20;19.47;;;16.70;77.20;;;;;;4994097;28;20879;-76
2021/03/23 10:51:05;;;;;;;24.67;18.27;;;16.90;79.60;;;;;;4986151;28;20554;-76
2021/03/23 10:53:31;;;;;;;25.90;16.63;;;16.90;78.80;;;;;;4966624;28;21007;-75
2021/03/23 10:55:57;;;;;;;25.83;19.27;;;17.00;78.30;;;;;;4977468;28;20424;-75
2021/03/23 10:58:26;;;;;;;26.83;19.40;;;15.40;77.90;;;;;;4993710;28;20687;-75
2021/03/23 11:01:13;;;;;;;26.50;18.70;;;15.70;79.30;;;;;;4991962;28;20212;-75
2021/03/23 11:03:42;;;;;;;23.17;18.50;;;16.40;79.00;;;;;;4980938;28;20480;-75
2021/03/23 11:06:33;;;;;;;17.73;15.77;;;16.30;76.10;;;;;;4944595;28;20425;-75
2021/03/23 11:09:07;;;;;;;27.77;18.47;;;16.00;77.70;;;;;;4970124;28;20396;-75
2021/03/23 11:11:36;;;;;;;27.60;19.47;;;16.90;79.00;;;;;;4989332;28;20528;-76
2021/03/23 11:14:02;;;;;;;23.70;18.60;;;17.00;76.00;;;;;;4966681;28;20434;-75
2021/03/23 11:16:32;;;;;;;26.97;19.57;;;16.30;77.10;;;;;;4981607;28;20492;-76
2021/03/23 11:19:00;;;;;;;22.70;17.60;;;15.10;79.80;;;;;;4955266;28;20499;-76
2021/03/23 11:21:31;;;;;;;27.23;17.50;;;14.50;81.70;;;;;;5005390;28;20425;-75
2021/03/23 11:23:57;;;;;;;26.20;17.57;;;14.20;82.60;;;;;;5031190;28;20466;-76
2021/03/23 11:26:26;;;;;;;26.60;17.10;;;13.70;85.50;;;;;;5004403;28;20447;-75
2021/03/23 11:28:53;;;;;;;24.90;18.43;;;14.30;86.80;;;;;;5045243;28;20198;-76
2021/03/23 11:31:21;;;;;;;22.47;16.87;;;14.80;85.70;;;;;;5007670;28;20416;-75
2021/03/23 11:33:48;;;;;;;23.30;18.07;;;15.30;84.00;;;;;;5024507;28;20432;-75
2021/03/23 11:36:13;;;;;;;21.47;17.07;;;15.00;81.50;;;;;;5023487;28;20420;-75
2021/03/23 11:38:40;;;;;;;24.13;17.03;;;14.90;81.70;;;;;;5022613;28;20451;-76
2021/03/23 11:41:12;;;;;;;26.57;17.17;;;15.00;82.70;;;;;;5027630;28;20228;-75
2021/03/23 11:43:53;;;;;;;26.83;18.53;;;14.00;82.40;;;;;;5006811;28;20431;-75
2021/03/23 11:46:26;;;;;;;20.83;16.70;;;13.50;85.20;;;;;;5022265;28;20500;-75
2021/03/23 11:48:56;;;;;;;25.50;18.03;;;13.70;86.10;;;;;;5036417;28;20467;-74
2021/03/23 11:51:24;;;;;;;24.87;16.97;;;14.10;86.90;;;;;;5021835;28;20418;-75
2021/03/23 11:53:50;;;;;;;21.97;16.40;;;14.60;85.00;;;;;;5006951;28;24047;-75
2021/03/23 11:56:17;;;;;;;25.03;16.80;;;14.90;85.00;;;;;;5019027;28;20419;-75
2021/03/23 11:58:43;;;;;;;23.40;16.57;;;14.90;85.30;;;;;;5005464;28;20427;-76
2021/03/23 12:01:10;;;;;;;22.70;16.90;;;13.80;86.10;;;;;;5024755;28;20430;-75
2021/03/23 12:03:35;;;;;;;21.80;18.57;;;13.70;89.40;;;;;;5026782;28;21601;-75
2021/03/23 12:06:02;;;;;;;22.87;17.90;;;14.30;88.50;;;;;;5018852;28;20436;-74
2021/03/23 12:08:47;;;;;;;21.37;17.67;;;13.70;89.10;;;;;;5019722;28;20221;-76
2021/03/23 12:11:20;;;;;;;23.77;17.40;;;13.70;90.30;;;;;;5019985;28;20997;-75
2021/03/23 12:13:55;;;;;;;29.53;18.30;;;13.70;90.70;;;;;;5019528;28;20448;-75
2021/03/23 12:16:47;;;;;;;25.63;17.80;;;13.70;90.80;;;;;;5039338;28;20418;-76
2021/03/23 12:19:15;;;;;;;24.13;18.40;;;14.70;90.40;;;;;;5021471;28;21049;-76
2021/03/23 12:21:41;;;;;;;31.87;17.70;;;15.10;88.30;;;;;;5010943;28;20412;-76
2021/03/23 12:24:07;;;;;;;23.43;17.33;;;15.00;87.00;;;;;;4989073;28;20938;-76
2021/03/23 12:26:34;;;;;;;22.57;19.00;;;14.80;87.80;;;;;;5003784;28;20427;-76
2021/03/23 12:29:00;;;;;;;24.60;19.03;;;14.00;89.90;;;;;;5009607;28;20826;-76
2021/03/23 12:31:26;;;;;;;29.63;20.30;;;13.80;90.60;;;;;;5026358;28;20394;-76
2021/03/23 12:33:52;;;;;;;23.80;20.53;;;14.00;91.20;;;;;;5019280;28;20436;-77
2021/03/23 12:36:19;;;;;;;28.53;20.10;;;14.00;91.50;;;;;;5020941;28;20941;-75
2021/03/23 12:38:48;;;;;;;26.57;20.50;;;13.90;91.00;;;;;;5035799;28;20515;-76
2021/03/23 12:41:18;;;;;;;24.07;20.83;;;13.50;91.60;;;;;;5017577;28;20411;-75
2021/03/23 12:43:49;;;;;;;27.33;19.60;;;12.90;93.00;;;;;;5015777;28;20420;-76
2021/03/23 12:46:14;;;;;;;25.13;20.13;;;13.00;95.80;;;;;;5027637;28;20399;-75
2021/03/23 12:48:40;;;;;;;22.30;18.67;;;13.20;96.00;;;;;;5015564;28;20973;-74
2021/03/23 12:51:12;;;;;;;30.53;21.70;;;13.60;95.60;;;;;;5018453;28;20439;-75
2021/03/23 12:53:38;;;;;;;29.70;22.03;;;13.30;95.80;;;;;;5023314;28;20211;-75
2021/03/23 12:56:04;;;;;;;28.80;22.00;;;13.40;96.00;;;;;;4996705;28;20760;-75
2021/03/23 12:58:32;;;;;;;28.00;22.03;;;13.40;96.20;;;;;;5023686;28;22566;-77
2021/03/23 13:00:59;;;;;;;25.93;18.20;;;13.80;96.20;;;;;;5008779;28;20953;-76
2021/03/23 13:03:25;;;;;;;27.40;19.73;;;13.80;95.50;;;;;;5023192;28;20454;-75
2021/03/23 13:05:53;;;;;;;25.50;19.17;;;14.20;95.30;;;;;;5008618;28;22364;-75
2021/03/23 13:08:28;;;;;;;25.63;20.47;;;14.50;94.80;;;;;;5028081;28;21244;-76